Nearby METAR Reports

 

LEAM - Almeria Airport, Spain
Distance from station: E 41km
Actualización: 13/11/2018 03:00

 Viento del NNO
Viento: NNO 13 km/h
Temperatura: 15°C
Rocío: 11°C
Humedad: 77%
Barómetro: 1018 hPa
Visibility: 10 km
2018/11/13 02:00 LEAM 130200Z AUTO 33007KT 300V360 9999 ////// 15/11 Q1018
LEGA - Armilla (civ/Mil, Spain
Distance from station: ONO 80km
Actualización: 12/11/2018 19:00
NOT Current
Despejado
Despejado
 Viento del S
Viento: S 7 km/h
Temperatura: 12°C
Rocío: 10°C
Humedad: 88%
Barómetro: 1017 hPa
Resumen: Despejado
Visibility: greater than 10 km
2018/11/12 18:00 LEGA 121800Z 18004KT CAVOK 12/10 Q1017
 
LEGR - Granada Airport, Spain
Distance from station: ONO 95km
Actualización: 13/11/2018 03:00
Parcialmente nuboso
Parcialmente nuboso
 Viento del SO
Viento: SO 6 km/h
Temperatura: 7°C
Rocío: 6°C
Humedad: 93%
Barómetro: 1020 hPa
Clouds: Parcialmente nuboso
Visibility: 8 km
2018/11/13 02:00 LEGR 130200Z AUTO 23003KT 8000 NSC 07/06 Q1020
LEMG - Malaga (civ/Mil), Spain
Distance from station: O 151km
Actualización: 13/11/2018 03:00
Few Clouds
Few Clouds
 Viento del NO
Viento: NO 9 km/h
Temperatura: 13°C
Rocío: 12°C
Humedad: 94%
Barómetro: 1019 hPa
Clouds: Few Clouds
Visibility: 10 km
Cloud details: Few Clouds 244 m
2018/11/13 02:00 LEMG 130200Z 31005KT 9999 FEW008 13/12 Q1019 NOSIG
 
GEML - Melilla, Spain
Distance from station: S 169km
Actualización: 13/11/2018 03:00
Few Clouds
Few Clouds
 Viento del ONO
Viento: ONO 7 km/h
Temperatura: 15°C
Rocío: 13°C
Humedad: 88%
Barómetro: 1018 hPa
Clouds: Few Clouds
Visibility: 10 km
Cloud details: Few Clouds 823 m
2018/11/13 02:00 GEML 130200Z AUTO 29004KT 250V320 9999 FEW027/// 15/13 Q1018
LERI - Alcantarilla(Sp-, Spain
Distance from station: NE 192km
Actualización: 12/11/2018 19:00
NOT Current
Despejado
Despejado
 Viento del varies
Viento: varies 2 km/h
Temperatura: 16°C
Rocío: 13°C
Humedad: 83%
Barómetro: 1017 hPa
Resumen: Despejado
Visibility: greater than 10 km
2018/11/12 18:00 LERI 121800Z VRB01KT CAVOK 16/13 Q1017 NOSIG
 
GMMW - Arwi, Morocco
Distance from station: S 201km
Actualización: 13/11/2018 03:00
Few Clouds
Few Clouds
 Viento del O
Viento: O 4 km/h
Temperatura: 13°C
Rocío: 12°C
Humedad: 94%
Barómetro: 1018 hPa
Clouds: Few Clouds
Visibility: 8 km
Cloud details: Few Clouds 610 m
2018/11/13 02:00 GMMW 130200Z 26002KT 8000 FEW020 13/12 Q1018 NOSIG
GMTA - Al Hoceima/Cote, Morocco
Distance from station: SSO 202km
Actualización: 13/11/2018 03:00
Few Clouds
Few Clouds
 Viento del S
Viento: S 4 km/h
Clouds: Few Clouds
Visibility: 3 km
Cloud details: Few Clouds 579 m
2018/11/13 02:00 GMTA 130200Z 18002KT 3100 FEW019 15/// Q1019 NOSIG
 
LELC - San Javier(Mil/C, Spain
Distance from station: ENE 209km
Actualización: 13/11/2018 03:00
Muy nuboso
Muy nuboso
 Viento del NO
Viento: NO 9 km/h
Temperatura: 15°C
Rocío: 13°C
Humedad: 88%
Barómetro: 1019 hPa
Clouds: Muy nuboso
Visibility: 9 km
Cloud details: Muy nuboso 488 m
2018/11/13 02:00 LELC 130200Z AUTO 31005KT 9000 BKN016/// 15/13 Q1019
LEBA - Cordoba Airport, Spain
Distance from station: NO 213km
Actualización: 13/11/2018 03:00
Parcialmente nuboso
Parcialmente nuboso
 Viento del varies
Viento: varies 2 km/h
Temperatura: 11°C
Rocío: 11°C
Humedad: 100%
Barómetro: 1020 hPa
Clouds: Parcialmente nuboso
Visibility: 7 km
2018/11/13 02:00 LEBA 130200Z AUTO VRB01KT 7000 NSC 11/11 Q1020
 
DAON - Tlemcen/Zenata, Algeria
Distance from station: SSE 231km
Actualización: 13/11/2018 03:00
Parcialmente nuboso
Parcialmente nuboso
 Viento del calm
Viento: Calma
Temperatura: 14°C
Rocío: 14°C
Humedad: 100%
Barómetro: 1019 hPa
Clouds: Parcialmente nuboso
Visibility: 8 km
Cloud details: Parcialmente nuboso 305 m
Parcialmente nuboso 3048 m
2018/11/13 02:00 DAON 130200Z 00000KT 8000 SCT010 SCT100 14/14 Q1019
LXGB - Gibraltar (civ/M, Gibraltar
Distance from station: OSO 236km
Actualización: 13/11/2018 02:50
Muy nuboso
Muy nuboso
 Viento del N
Viento: N 2 km/h
Temperatura: 15°C
Rocío: 13°C
Humedad: 88%
Barómetro: 1019 hPa
Clouds: Muy nuboso
Visibility: 10 km
Cloud details: Muy nuboso 3962 m
2018/11/13 01:50 LXGB 130150Z AUTO 36001KT 9999 // BKN130/// 15/13 Q1019
 
DAOO - Oran/Es Senia, Algeria
Distance from station: ESE 237km
Actualización: 13/11/2018 03:00
Parcialmente nuboso
Parcialmente nuboso
 Viento del calm
Viento: Calma
Temperatura: 14°C
Rocío: 14°C
Humedad: 100%
Barómetro: 1018 hPa
Clouds: Parcialmente nuboso
Visibility: 10 km
Cloud details: Parcialmente nuboso 396 m
Parcialmente nuboso 792 m
2018/11/13 02:00 DAOO 130200Z 00000KT 9999 SCT013 SCT026 14/14 Q1018
GMFO - Oujda/Angads, Morocco
Distance from station: SSE 238km
Actualización: 13/11/2018 03:00
Muy nuboso
Muy nuboso
 Viento del NO
Viento: NO 7 km/h
Temperatura: 13°C
Rocío: 13°C
Humedad: 100%
Barómetro: 1019 hPa
Clouds: Muy nuboso
Visibility: 6 km
Cloud details: Parcialmente nuboso 305 m
Muy nuboso 3048 m
2018/11/13 02:00 GMFO 130200Z 31004KT 6000 SCT010 BKN100 13/13 Q1019 NOSIG
 
DAOL - Oran/Tafaroui, Algeria
Distance from station: ESE 249km
Actualización: 13/11/2018 01:00
NOT Current
Parcialmente nuboso
Parcialmente nuboso
 Viento del SO
Viento: SO 7 km/h
Temperatura: 16°C
Rocío: 12°C
Humedad: 77%
Barómetro: 1018 hPa
Clouds: Parcialmente nuboso
Visibility: 8 km
Cloud details: Few Clouds 792 m
Parcialmente nuboso 6096 m
2018/11/13 00:00 DAOL 130000Z 22004KT 8000 FEW026 SCT200 16/12 Q1018
LEMO - Moron (sp-Usafb), Spain
Distance from station: O 252km
Actualización: 13/11/2018 03:00
Parcialmente nuboso
Parcialmente nuboso
 Viento del NNE
Viento: NNE 6 km/h
Temperatura: 13°C
Rocío: 12°C
Humedad: 94%
Barómetro: 1019 hPa
Clouds: Parcialmente nuboso
Visibility: 8 km
2018/11/13 02:00 LEMO 130200Z 03003KT 8000 NSC 13/12 Q1019 NOSIG
 
LEAB - Albacete (civ/Mi, Spain
Distance from station: NNE 255km
Actualización: 13/11/2018 03:00
Patches of fog, Cubierto
Patches of fog, Cubierto
 Viento del ENE
Viento: ENE 7 km/h
Temperatura: 11°C
Rocío: 10°C
Humedad: 94%
Barómetro: 1022 hPa
Resumen: Patches of Fog
Clouds: Cubierto
Visibility: 2 km
Cloud details: Parcialmente nuboso 61 m
Cubierto 335 m
2018/11/13 02:00 LEAB 130200Z 07004KT 1800 0600S BCFG SCT002 OVC011 11/10 Q1022 BECMG 0900 FG BKN001
LEAL - Alicante/El Alte, Spain
Distance from station: NE 259km
Actualización: 13/11/2018 03:00
Despejado
Despejado
 Viento del O
Viento: O 9 km/h
Temperatura: 15°C
Rocío: 12°C
Humedad: 82%
Barómetro: 1019 hPa
Resumen: Despejado
Visibility: greater than 10 km
2018/11/13 02:00 LEAL 130200Z 26005KT CAVOK 15/12 Q1019 NOSIG
 
GMTN - Sania Ramel/Teto, Morocco
Distance from station: OSO 262km
Actualización: 13/11/2018 03:00

 Viento del SSO
Viento: SSO 9 km/h
Temperatura: 14°C
Rocío: 11°C
Humedad: 82%
Barómetro: 1019 hPa
Visibility: 6 miles
2018/11/13 02:00 GMTN 130200Z AUTO 21005KT 3400NDV /// 14/11 Q1019
LEZL - Sevilla (civ/Mil, Spain
Distance from station: ONO 282km
Actualización: 13/11/2018 03:00
Despejado
Despejado
 Viento del ESE
Viento: ESE 4 km/h
Temperatura: 14°C
Rocío: 13°C
Humedad: 94%
Barómetro: 1019 hPa
Resumen: Despejado
Visibility: greater than 10 km
2018/11/13 02:00 LEZL 130200Z AUTO 11002KT CAVOK 14/13 Q1019